Terminal Aerodrome Forecast
Issued by NWS

Home | Current Version | Previous Version | Text Only | Print | Product List | Glossary On
Versions: 1 2 3 4 5 6 7 8 9 10 11 12
000
FTUS45 KTFX 061149
TAFBZN
TAF
KBZN 061149Z 0612/0712 VRB05KT P6SM BKN150
     FM061400 24010KT P6SM SCT090 BKN150
     FM061800 26018G32KT P6SM SCT090 BKN150
      TEMPO 0619/0622 27025G40KT
     FM070000 27015KT P6SM BKN090
     FM070300 22007KT P6SM SCT100=

USA.gov is the U.S. government's official web portal to all federal, state and local government web resources and services.